createdAt,value
2018-12-23T00:00:29.615Z,7.19
2018-12-23T00:02:59.326Z,7.15
2018-12-23T00:05:28.680Z,7.28
2018-12-23T00:07:57.807Z,7.29
2018-12-23T00:10:27.126Z,7.30
2018-12-23T00:12:56.413Z,7.23
2018-12-23T00:15:25.263Z,7.32
2018-12-23T00:17:54.308Z,7.26
2018-12-23T00:20:23.457Z,7.32
2018-12-23T00:22:52.537Z,7.20
2018-12-23T00:25:21.690Z,7.29
2018-12-23T00:27:50.578Z,7.26
2018-12-23T00:30:19.494Z,7.36
2018-12-23T00:32:48.346Z,7.32
2018-12-23T00:35:20.529Z,7.28
2018-12-23T00:37:48.107Z,7.39
2018-12-23T00:40:16.907Z,7.37
2018-12-23T00:42:46.267Z,7.38
2018-12-23T00:45:15.077Z,7.35
2018-12-23T00:47:43.948Z,7.42
2018-12-23T00:50:13.142Z,7.38
2018-12-23T00:52:42.702Z,7.46
2018-12-23T00:55:11.661Z,7.50
2018-12-23T00:57:40.566Z,7.48
2018-12-23T01:00:10.290Z,7.46
2018-12-23T01:02:39.165Z,7.44
2018-12-23T01:05:08.607Z,7.51
2018-12-23T01:07:37.539Z,7.59
2018-12-23T01:10:06.942Z,7.55
2018-12-23T01:12:36.035Z,7.51
2018-12-23T01:15:05.915Z,7.59
2018-12-23T01:17:34.831Z,7.50
2018-12-23T01:20:04.134Z,7.54
2018-12-23T01:22:33.018Z,7.53
2018-12-23T01:25:01.907Z,7.55
2018-12-23T01:27:30.917Z,7.54
2018-12-23T01:29:59.862Z,7.66
2018-12-23T01:32:28.838Z,7.65
2018-12-23T01:34:57.883Z,7.70
2018-12-23T01:37:26.707Z,7.61
2018-12-23T01:39:55.615Z,7.68
2018-12-23T01:42:24.750Z,7.63
2018-12-23T01:44:53.769Z,7.59
2018-12-23T01:47:22.620Z,7.72
2018-12-23T01:49:51.522Z,7.72
2018-12-23T01:52:20.771Z,7.65
2018-12-23T01:54:49.681Z,7.60
2018-12-23T01:57:18.645Z,7.60
2018-12-23T01:59:47.534Z,7.62
2018-12-23T02:02:16.412Z,7.64
2018-12-23T02:04:45.324Z,7.68
2018-12-23T02:07:14.198Z,7.67
2018-12-23T02:09:43.289Z,7.63
2018-12-23T02:12:12.243Z,7.64
2018-12-23T02:14:41.168Z,7.67
2018-12-23T02:17:10.382Z,7.67
2018-12-23T02:19:39.566Z,7.66
2018-12-23T02:22:08.588Z,7.69
2018-12-23T02:24:37.608Z,7.64
2018-12-23T02:27:06.577Z,7.74
2018-12-23T02:29:35.490Z,7.74
2018-12-23T02:32:05.112Z,7.76
2018-12-23T02:34:34.212Z,7.74
2018-12-23T02:37:03.426Z,7.77
2018-12-23T02:39:33.359Z,7.79
2018-12-23T02:42:02.347Z,7.78
2018-12-23T02:44:31.250Z,7.80
2018-12-23T02:47:00.398Z,7.84
2018-12-23T02:49:29.235Z,7.80
2018-12-23T02:51:58.195Z,7.76
2018-12-23T02:54:27.059Z,7.74
2018-12-23T02:56:56.051Z,7.77
2018-12-23T02:59:25.018Z,7.78
2018-12-23T03:01:53.915Z,7.79
2018-12-23T03:04:22.748Z,7.76
2018-12-23T03:06:51.957Z,7.76
2018-12-23T03:09:21.187Z,7.73
2018-12-23T03:11:50.109Z,7.74
2018-12-23T03:14:19.067Z,7.72
2018-12-23T03:16:48.862Z,7.75
2018-12-23T03:19:18.121Z,7.73
2018-12-23T03:21:47.024Z,7.81
2018-12-23T03:24:15.990Z,7.73
2018-12-23T03:26:44.907Z,7.64
2018-12-23T03:29:13.802Z,7.77
2018-12-23T03:31:43.206Z,7.71
2018-12-23T03:34:12.190Z,7.73
2018-12-23T03:36:41.171Z,7.78
2018-12-23T03:39:10.065Z,7.83
2018-12-23T03:41:39.247Z,7.77
2018-12-23T03:44:08.160Z,7.76
2018-12-23T03:46:37.192Z,7.75
2018-12-23T03:49:07.980Z,7.84
2018-12-23T03:51:37.370Z,7.75
2018-12-23T03:54:07.834Z,7.89
2018-12-23T03:56:37.973Z,7.84
2018-12-23T03:59:07.593Z,7.86
2018-12-23T04:01:36.488Z,7.83
2018-12-23T04:04:05.377Z,7.72
2018-12-23T04:06:34.262Z,7.83
2018-12-23T04:09:05.340Z,7.78
2018-12-23T04:11:34.672Z,7.85
2018-12-23T04:14:03.560Z,7.79
2018-12-23T04:16:33.109Z,7.84
2018-12-23T04:19:02.777Z,7.77
2018-12-23T04:21:31.952Z,7.81
2018-12-23T04:24:00.878Z,7.82
2018-12-23T04:26:29.904Z,7.80
2018-12-23T04:28:58.815Z,7.84
2018-12-23T04:31:28.306Z,7.87
2018-12-23T04:33:57.292Z,7.90
2018-12-23T04:36:33.939Z,7.85
2018-12-23T04:38:57.531Z,7.88
2018-12-23T04:41:26.405Z,7.94
2018-12-23T04:43:55.365Z,7.88
2018-12-23T04:46:24.482Z,7.90
2018-12-23T04:48:53.411Z,7.83
2018-12-23T04:51:22.330Z,7.85
2018-12-23T04:53:51.211Z,7.81
2018-12-23T04:56:20.414Z,7.84
2018-12-23T04:58:50.196Z,7.76
2018-12-23T05:01:19.247Z,7.81
2018-12-23T05:03:48.299Z,7.83
2018-12-23T05:06:17.976Z,7.88
2018-12-23T05:08:47.480Z,7.81
2018-12-23T05:11:16.637Z,7.81
2018-12-23T05:13:45.898Z,7.78
2018-12-23T05:17:00.058Z,7.85
2018-12-23T05:19:41.761Z,7.82
2018-12-23T05:22:30.188Z,7.79
2018-12-23T05:25:12.878Z,7.84
2018-12-23T05:27:54.445Z,7.81
2018-12-23T05:30:42.866Z,7.84
2018-12-23T05:33:24.169Z,7.74
2018-12-23T05:36:12.541Z,7.76
2018-12-23T05:38:54.293Z,7.80
2018-12-23T05:41:42.648Z,7.77
2018-12-23T05:44:24.047Z,7.83
2018-12-23T05:47:12.524Z,7.75
2018-12-23T05:49:54.284Z,7.77
2018-12-23T05:52:42.676Z,7.73
2018-12-23T05:55:26.449Z,7.82
2018-12-23T05:58:14.867Z,7.80
2018-12-23T06:00:56.451Z,7.71
2018-12-23T06:03:44.892Z,7.85
2018-12-23T06:06:26.466Z,7.85
2018-12-23T06:09:15.297Z,7.90
2018-12-23T06:11:56.385Z,7.79
2018-12-23T06:14:44.925Z,7.77
2018-12-23T06:17:25.995Z,7.81
2018-12-23T06:20:15.768Z,7.74
2018-12-23T06:22:56.706Z,7.75
2018-12-23T06:25:45.255Z,7.81
2018-12-23T06:28:26.881Z,7.81
2018-12-23T06:31:15.363Z,7.77
2018-12-23T06:33:56.751Z,7.79
2018-12-23T06:36:45.090Z,7.71
2018-12-23T06:39:26.917Z,7.68
2018-12-23T06:42:15.311Z,7.71
2018-12-23T06:44:56.577Z,7.68
2018-12-23T06:47:44.895Z,7.72
2018-12-23T06:50:25.998Z,7.76
2018-12-23T06:53:14.443Z,7.71
2018-12-23T06:55:57.042Z,7.63
2018-12-23T06:58:38.209Z,7.59
2018-12-23T07:01:26.412Z,7.73
2018-12-23T07:04:08.228Z,7.70
2018-12-23T07:06:48.074Z,7.76
2018-12-23T07:09:30.067Z,7.64
2018-12-23T07:12:18.547Z,7.74
2018-12-23T07:14:47.822Z,7.70
2018-12-23T07:17:37.163Z,7.75
2018-12-23T07:20:18.637Z,7.77
2018-12-23T07:22:48.045Z,7.74
2018-12-23T07:25:30.006Z,7.78
2018-12-23T07:28:18.437Z,7.67
2018-12-23T07:30:59.637Z,7.71
2018-12-23T07:33:47.947Z,7.62
2018-12-23T07:36:30.019Z,7.61
2018-12-23T07:39:18.414Z,7.59
2018-12-23T07:42:00.341Z,7.57
2018-12-23T07:44:41.437Z,7.57
2018-12-23T07:47:22.556Z,7.60
2018-12-23T07:50:04.619Z,7.58
2018-12-23T07:52:53.041Z,7.59
2018-12-23T07:55:34.423Z,7.63
2018-12-23T07:58:22.895Z,7.63
2018-12-23T08:01:06.385Z,7.54
2018-12-23T08:03:55.106Z,7.58
2018-12-23T08:06:36.654Z,7.64
2018-12-23T08:09:25.131Z,7.57
2018-12-23T08:12:06.357Z,7.63
2018-12-23T08:14:54.620Z,7.65
2018-12-23T08:17:36.045Z,7.66
2018-12-23T08:20:24.751Z,7.67
2018-12-23T08:23:06.006Z,7.80
2018-12-23T08:25:54.459Z,7.81
2018-12-23T08:28:36.489Z,7.77
2018-12-23T08:31:25.026Z,7.81
2018-12-23T08:34:06.150Z,7.78
2018-12-23T08:36:54.864Z,7.72
2018-12-23T08:39:36.539Z,7.78
2018-12-23T08:42:24.883Z,7.86
2018-12-23T08:45:06.431Z,7.77
2018-12-23T08:47:54.752Z,7.77
2018-12-23T08:50:35.620Z,7.85
2018-12-23T08:53:24.467Z,7.87
2018-12-23T08:56:05.976Z,7.87
2018-12-23T08:58:54.719Z,7.94
2018-12-23T09:01:36.390Z,7.93
2018-12-23T09:04:25.053Z,8.04
2018-12-23T09:07:06.421Z,7.98
2018-12-23T09:09:54.761Z,7.93
2018-12-23T09:12:36.414Z,7.94
2018-12-23T09:15:24.873Z,7.99
2018-12-23T09:18:06.433Z,8.02
2018-12-23T09:20:54.969Z,7.97
2018-12-23T09:23:36.312Z,7.96
2018-12-23T09:26:24.919Z,7.92
2018-12-23T09:29:04.401Z,8.03
2018-12-23T09:31:53.046Z,7.98
2018-12-23T09:34:34.168Z,8.04
2018-12-23T09:37:22.736Z,8.01
2018-12-23T09:40:04.511Z,8.03
2018-12-23T09:42:53.502Z,8.01
2018-12-23T09:45:34.549Z,7.96
2018-12-23T09:48:23.042Z,7.96
2018-12-23T09:51:02.585Z,8.06
2018-12-23T09:53:50.887Z,8.00
2018-12-23T09:56:31.650Z,8.01
2018-12-23T09:59:20.001Z,8.07
2018-12-23T10:02:00.902Z,8.06
2018-12-23T10:04:49.257Z,8.12
2018-12-23T10:07:30.382Z,8.04
2018-12-23T10:10:19.042Z,8.07
2018-12-23T10:13:00.583Z,8.02
2018-12-23T10:15:48.947Z,8.08
2018-12-23T10:18:30.081Z,7.98
2018-12-23T10:21:18.509Z,8.01
2018-12-23T10:24:00.190Z,8.07
2018-12-23T10:26:48.518Z,8.19
2018-12-23T10:29:30.128Z,8.08
2018-12-23T10:32:18.681Z,8.12
2018-12-23T10:35:00.351Z,8.09
2018-12-23T10:37:48.793Z,8.11
2018-12-23T10:40:30.505Z,8.19
2018-12-23T10:43:18.899Z,8.16
2018-12-23T10:45:58.481Z,8.13
2018-12-23T10:48:46.779Z,8.17
2018-12-23T10:51:27.911Z,8.12
2018-12-23T10:54:16.356Z,8.19
2018-12-23T10:56:57.839Z,8.26
2018-12-23T10:59:46.248Z,8.28
2018-12-23T11:02:28.309Z,8.19
2018-12-23T11:08:26.904Z,8.23
2018-12-23T11:11:13.281Z,8.22
2018-12-23T11:13:55.940Z,8.29
2018-12-23T11:16:45.028Z,8.25
2018-12-23T11:19:26.762Z,8.19
2018-12-23T11:22:15.307Z,8.20
2018-12-23T11:24:56.820Z,8.28
2018-12-23T11:27:46.820Z,8.22
2018-12-23T11:30:27.892Z,8.23
2018-12-23T11:36:17.641Z,8.20
2018-12-23T11:39:07.610Z,8.11
2018-12-23T11:41:48.464Z,8.18
2018-12-23T11:44:30.823Z,8.09
2018-12-23T11:47:12.360Z,8.16
2018-12-23T11:50:01.418Z,8.25
2018-12-23T11:52:44.102Z,8.17
2018-12-23T11:55:32.419Z,8.13
2018-12-23T11:58:14.087Z,8.20
2018-12-23T12:01:02.625Z,8.27
2018-12-23T12:03:46.076Z,8.32
2018-12-23T12:06:34.774Z,8.37
2018-12-23T12:09:16.484Z,8.31
2018-12-23T12:12:04.832Z,8.37
2018-12-23T12:14:45.902Z,8.31
2018-12-23T12:17:34.864Z,8.36
2018-12-23T12:20:15.791Z,8.40
2018-12-23T12:23:04.296Z,8.49
2018-12-23T12:25:45.744Z,8.40
2018-12-23T12:28:34.136Z,8.40
2018-12-23T12:31:13.537Z,8.34
2018-12-23T12:33:42.765Z,8.51
2018-12-23T12:36:24.143Z,8.42
2018-12-23T12:39:12.967Z,8.44
2018-12-23T12:41:54.380Z,8.44
2018-12-23T12:44:35.835Z,8.34
2018-12-23T12:47:04.892Z,8.33
2018-12-23T12:49:54.995Z,8.36
2018-12-23T12:52:37.288Z,8.37
2018-12-23T12:55:25.997Z,8.40
2018-12-23T12:58:07.687Z,8.38
2018-12-23T13:00:56.116Z,8.45
2018-12-23T13:03:38.182Z,8.33
2018-12-23T13:06:07.197Z,8.30
2018-12-23T13:08:46.776Z,8.28
2018-12-23T13:11:35.189Z,8.24
2018-12-23T13:14:17.262Z,8.24
2018-12-23T13:17:05.544Z,8.28
2018-12-23T13:19:47.203Z,8.16
2018-12-23T13:22:35.631Z,8.20
2018-12-23T13:25:16.754Z,8.20
2018-12-23T13:28:05.279Z,8.21
2018-12-23T13:30:46.465Z,8.15
2018-12-23T13:33:34.700Z,8.14
2018-12-23T13:36:16.235Z,8.13
2018-12-23T13:39:09.115Z,8.06
2018-12-23T13:42:21.179Z,8.08
2018-12-23T13:45:21.500Z,8.01
2018-12-23T13:48:22.231Z,8.05
2018-12-23T13:51:44.111Z,8.15
2018-12-23T13:54:44.690Z,8.02
2018-12-23T13:58:14.634Z,8.01
2018-12-23T14:01:15.071Z,8.09
2018-12-23T14:04:42.192Z,8.02
2018-12-23T14:07:43.284Z,8.00
2018-12-23T14:11:10.426Z,7.87
2018-12-23T14:13:51.608Z,7.95
2018-12-23T14:16:40.043Z,7.90
2018-12-23T14:19:21.561Z,7.95
2018-12-23T14:22:09.787Z,7.82
2018-12-23T14:24:51.245Z,7.83
2018-12-23T14:27:39.779Z,7.91
2018-12-23T14:30:20.536Z,7.92
2018-12-23T14:33:08.826Z,7.81
2018-12-23T14:35:50.498Z,7.79
2018-12-23T14:38:38.995Z,7.82
2018-12-23T14:41:20.522Z,7.74
2018-12-23T14:44:02.181Z,7.82
2018-12-23T14:46:31.656Z,7.78
2018-12-23T14:49:20.143Z,7.80
2018-12-23T14:51:59.919Z,7.68
2018-12-23T14:54:48.255Z,7.71
2018-12-23T14:57:30.778Z,7.65
2018-12-23T15:00:19.385Z,7.69
2018-12-23T15:02:58.847Z,7.60
2018-12-23T15:05:47.048Z,7.65
2018-12-23T15:08:28.166Z,7.58
2018-12-23T15:11:16.842Z,7.54
2018-12-23T15:13:58.273Z,7.55
2018-12-23T15:16:46.654Z,7.52
2018-12-23T15:19:28.111Z,7.48
2018-12-23T15:21:57.144Z,7.41
2018-12-23T15:24:38.550Z,7.48
2018-12-23T15:27:27.062Z,7.42
2018-12-23T15:30:08.736Z,7.42
2018-12-23T15:32:58.046Z,7.51
2018-12-23T15:35:41.904Z,7.52
2018-12-23T15:38:30.957Z,7.49
2018-12-23T15:41:12.183Z,7.44
2018-12-23T15:43:53.719Z,7.44
2018-12-23T15:46:34.707Z,7.51
2018-12-23T15:49:16.334Z,7.38
2018-12-23T15:52:04.807Z,7.39
2018-12-23T15:54:46.601Z,7.42
2018-12-23T15:57:35.752Z,7.36
2018-12-23T16:00:17.137Z,7.37
2018-12-23T16:03:05.799Z,7.32
2018-12-23T16:05:47.755Z,7.41
2018-12-23T16:08:36.427Z,7.30
2018-12-23T16:11:18.077Z,7.37
2018-12-23T16:14:06.959Z,7.22
2018-12-23T16:16:47.948Z,7.19
2018-12-23T16:19:36.516Z,7.33
2018-12-23T16:22:17.922Z,7.29
2018-12-23T16:25:06.328Z,7.17
2018-12-23T16:27:48.035Z,7.14
2018-12-23T16:30:36.371Z,7.21
2018-12-23T16:33:17.286Z,7.25
2018-12-23T16:36:05.891Z,7.21
2018-12-23T16:38:47.551Z,7.09
2018-12-23T16:41:36.009Z,7.07
2018-12-23T16:44:17.665Z,7.15
2018-12-23T16:47:05.971Z,7.18
2018-12-23T16:49:47.011Z,7.11
2018-12-23T16:52:35.457Z,7.17
2018-12-23T16:55:16.441Z,7.18
2018-12-23T16:58:04.860Z,7.14
2018-12-23T17:00:51.176Z,7.09
2018-12-23T17:03:39.703Z,7.07
2018-12-23T17:06:21.043Z,7.11
2018-12-23T17:09:09.605Z,6.99
2018-12-23T17:11:51.288Z,7.06
2018-12-23T17:14:39.581Z,7.01
2018-12-23T17:17:25.608Z,6.97
2018-12-23T17:20:14.014Z,6.89
2018-12-23T17:22:55.070Z,6.93
2018-12-23T17:25:43.450Z,7.02
2018-12-23T17:28:22.988Z,6.94
2018-12-23T17:31:11.350Z,6.98
2018-12-23T17:33:52.816Z,6.97
2018-12-23T17:36:41.048Z,6.96
2018-12-23T17:39:23.756Z,6.91
2018-12-23T17:42:12.052Z,6.86
2018-12-23T17:44:54.443Z,6.95
2018-12-23T17:47:42.909Z,6.85
2018-12-23T17:50:23.700Z,6.94
2018-12-23T17:53:05.366Z,6.84
2018-12-23T17:55:53.750Z,6.74
2018-12-23T17:58:35.500Z,6.75
2018-12-23T18:01:23.936Z,6.68
2018-12-23T18:04:05.637Z,6.78
2018-12-23T18:06:54.702Z,6.79
2018-12-23T18:09:34.325Z,6.77
2018-12-23T18:12:22.773Z,6.65
2018-12-23T18:15:04.541Z,6.74
2018-12-23T18:17:52.978Z,6.76
2018-12-23T18:20:34.764Z,6.80
2018-12-23T18:23:23.313Z,6.64
2018-12-23T18:26:04.771Z,6.70
2018-12-23T18:28:53.246Z,6.64
2018-12-23T18:31:34.865Z,6.71
2018-12-23T18:34:23.685Z,6.77
2018-12-23T18:37:04.679Z,6.69
2018-12-23T18:39:53.653Z,6.75
2018-12-23T18:42:37.106Z,6.69
2018-12-23T18:45:25.459Z,6.58
2018-12-23T18:48:07.161Z,6.66
2018-12-23T18:50:55.617Z,6.61
2018-12-23T18:53:37.156Z,6.69
2018-12-23T18:56:35.308Z,6.77
2018-12-23T18:59:17.770Z,6.80
2018-12-23T19:02:09.454Z,6.70
2018-12-23T19:04:50.930Z,6.87
2018-12-23T19:07:40.749Z,6.76
2018-12-23T19:10:41.934Z,6.67
2018-12-23T19:14:09.929Z,6.65
2018-12-23T19:17:10.832Z,6.67
2018-12-23T19:20:37.724Z,6.62
2018-12-23T19:23:31.112Z,6.64
2018-12-23T19:26:58.114Z,6.64
2018-12-23T19:29:58.758Z,6.50
2018-12-23T19:33:25.799Z,6.53
2018-12-23T19:36:22.661Z,6.63
2018-12-23T19:39:40.446Z,6.61
2018-12-23T19:42:40.755Z,6.58
2018-12-23T19:46:12.453Z,6.54
2018-12-23T19:49:13.355Z,6.49
2018-12-23T19:52:40.303Z,6.58
2018-12-23T19:55:40.569Z,6.56
2018-12-23T19:58:42.068Z,6.58
2018-12-23T20:02:09.111Z,6.62
2018-12-23T20:05:16.029Z,6.60
2018-12-23T20:08:29.998Z,6.50
2018-12-23T20:11:30.356Z,6.40
2018-12-23T20:15:12.256Z,6.47
2018-12-23T20:18:17.249Z,6.51
2018-12-23T20:21:44.209Z,6.44
2018-12-23T20:24:45.379Z,6.42
2018-12-23T20:28:12.437Z,6.49
2018-12-23T20:31:05.765Z,6.47
2018-12-23T20:34:32.734Z,6.47
2018-12-23T20:37:39.919Z,6.24
2018-12-23T20:41:07.656Z,6.46
2018-12-23T20:43:55.133Z,6.42
2018-12-23T20:47:10.131Z,6.44
2018-12-23T20:50:10.769Z,6.40
2018-12-23T20:53:37.926Z,6.42
2018-12-23T20:56:32.483Z,6.41
2018-12-23T20:59:59.458Z,6.32
2018-12-23T21:07:08.496Z,6.28
2018-12-23T21:10:09.280Z,6.41
2018-12-23T21:13:36.223Z,6.34
2018-12-23T21:16:25.305Z,6.40
2018-12-23T21:19:52.393Z,6.41
2018-12-23T21:26:06.153Z,6.37
2018-12-23T21:29:33.302Z,6.33
2018-12-23T21:32:34.130Z,6.39
2018-12-23T21:35:22.650Z,6.33
2018-12-23T21:38:49.693Z,6.41
2018-12-23T21:41:50.520Z,6.43
2018-12-23T21:45:17.457Z,6.43
2018-12-23T21:48:17.108Z,6.39
2018-12-23T21:51:35.412Z,6.46
2018-12-23T21:54:31.303Z,6.38
2018-12-23T21:57:58.410Z,6.23
2018-12-23T22:00:59.401Z,6.31
2018-12-23T22:04:26.315Z,6.29
2018-12-23T22:07:14.297Z,6.18
2018-12-23T22:10:41.245Z,6.33
2018-12-23T22:13:25.271Z,6.12
2018-12-23T22:16:06.973Z,6.16
2018-12-23T22:18:47.895Z,6.23
2018-12-23T22:21:36.274Z,6.09
2018-12-23T22:24:18.198Z,6.27
2018-12-23T22:27:06.579Z,6.34
2018-12-23T22:29:47.866Z,6.35
2018-12-23T22:32:36.253Z,6.09
2018-12-23T22:35:17.885Z,6.32
2018-12-23T22:38:06.283Z,6.26
2018-12-23T22:41:06.825Z,6.39
2018-12-23T22:43:55.261Z,6.40
2018-12-23T22:46:36.492Z,6.41
2018-12-23T22:49:24.851Z,6.41
2018-12-23T22:52:06.535Z,6.25
2018-12-23T22:54:54.854Z,6.41
2018-12-23T22:57:35.747Z,6.39
2018-12-23T23:03:38.859Z,6.47
2018-12-23T23:06:27.301Z,6.45
2018-12-23T23:09:08.642Z,6.50
2018-12-23T23:11:57.086Z,6.50
2018-12-23T23:14:38.377Z,6.34
2018-12-23T23:17:19.964Z,6.47
2018-12-23T23:20:01.582Z,6.37
2018-12-23T23:22:42.816Z,6.35
2018-12-23T23:25:31.234Z,6.35
2018-12-23T23:28:12.266Z,6.37
2018-12-23T23:31:00.681Z,6.34
2018-12-23T23:33:44.138Z,6.35
2018-12-23T23:36:32.662Z,6.20
2018-12-23T23:39:14.192Z,6.34
2018-12-23T23:42:02.680Z,6.36
2018-12-23T23:44:45.835Z,6.33
2018-12-23T23:47:34.259Z,6.39
2018-12-23T23:50:17.758Z,6.32
2018-12-23T23:53:06.073Z,6.32
2018-12-23T23:55:47.122Z,6.34
2018-12-23T23:58:35.559Z,6.30
